Nearby METAR Reports

 

EBBR - Brussel National Airport
Distance from station: NNW 8.5km
Updated: 27/05/2018 21:20
Nearby showers, Few clouds
Nearby showers, Few clouds
 Wind van ZO
Wind: ZO 11 km/h
Temperatuur: 20°C
Dauwpunt: 16°C
Vochtigheid: 78%
Barometer: 1016 hPa
Overzicht: Nearby Showers
Clouds: Few Clouds
Visibility: 10 km
Cloud details: Few Clouds 914 m
2018/05/27 19:20 EBBR 271920Z 13006KT 9999 VCSH FEW030CB 20/16 Q1016 NOSIG